New Orleans, Louisiana
Traffic Map
Current Weather Conditions
New Orleans, Louisiana
Overcast Haze
Overcast
19°
Feels Like: 19°
Wind Chill: 19° Ceiling: 500
Heat Index: 19° Visibility: 3mi
Dew Point: 17° Wind: 8mph
Humidity: 84% Direction: 90° (E)
Pressure: 29.82in Gusts: 0mph
Raw Report DataKNEW 281353Z AUTO 09007KT 3SM HZ OVC005 19/17 A2982 RMK AO2 RAB1254E07 SLP091 P0001 T01940167 TSNO
Traffic Incident Summary
Active as of:
Severity:
Category:
InformationThere was an issue retrieving the traffic information for this location. Please try a different location or try again shortly.
Advertisements
Track Severe Weather on mobile